createdAt,value
2018-05-04T00:00:24.836Z,1.53
2018-05-04T00:02:53.907Z,1.30
2018-05-04T00:05:22.229Z,1.27
2018-05-04T00:07:51.508Z,1.17
2018-05-04T00:10:19.800Z,1.87
2018-05-04T00:12:48.073Z,1.40
2018-05-04T00:15:16.413Z,1.53
2018-05-04T00:17:45.456Z,1.87
2018-05-04T00:20:13.732Z,1.23
2018-05-04T00:22:42.057Z,1.83
2018-05-04T00:25:10.385Z,1.80
2018-05-04T00:27:38.660Z,1.43
2018-05-04T00:30:07.003Z,1.57
2018-05-04T00:32:35.330Z,1.40
2018-05-04T00:35:03.656Z,1.23
2018-05-04T00:37:32.700Z,1.73
2018-05-04T00:40:01.025Z,1.73
2018-05-04T00:42:29.349Z,1.50
2018-05-04T00:44:58.397Z,2.17
2018-05-04T00:47:26.725Z,2.20
2018-05-04T00:49:55.053Z,2.00
2018-05-04T00:52:23.326Z,3.03
2018-05-04T00:54:52.436Z,1.30
2018-05-04T00:57:20.717Z,2.30
2018-05-04T00:59:49.765Z,1.80
2018-05-04T01:02:18.088Z,1.40
2018-05-04T01:04:46.416Z,1.67
2018-05-04T01:07:14.700Z,1.97
2018-05-04T01:09:43.793Z,1.23
2018-05-04T01:12:12.888Z,1.77
2018-05-04T01:14:41.213Z,1.73
2018-05-04T01:17:10.580Z,1.30
2018-05-04T01:19:38.857Z,1.70
2018-05-04T01:22:07.132Z,2.13
2018-05-04T01:24:35.460Z,1.90
2018-05-04T01:27:03.749Z,2.00
2018-05-04T01:29:32.069Z,1.50
2018-05-04T01:32:01.161Z,2.53
2018-05-04T01:34:29.529Z,2.20
2018-05-04T01:36:57.805Z,1.60
2018-05-04T01:39:26.129Z,1.50
2018-05-04T01:41:54.408Z,1.73
2018-05-04T01:44:22.737Z,2.03
2018-05-04T01:46:51.017Z,2.03
2018-05-04T01:49:20.101Z,2.50
2018-05-04T01:51:48.424Z,2.13
2018-05-04T01:54:16.748Z,2.07
2018-05-04T01:56:45.029Z,2.63
2018-05-04T01:59:13.353Z,1.87
2018-05-04T02:01:41.745Z,3.00
2018-05-04T02:04:10.129Z,1.87
2018-05-04T02:06:38.456Z,2.50
2018-05-04T02:09:07.549Z,2.87
2018-05-04T02:11:35.873Z,2.37
2018-05-04T02:14:04.524Z,2.13
2018-05-04T02:16:32.805Z,1.90
2018-05-04T02:19:01.085Z,2.30
2018-05-04T02:21:29.406Z,2.00
2018-05-04T02:23:57.680Z,3.53
2018-05-04T02:26:26.018Z,2.20
2018-05-04T02:28:54.295Z,2.33
2018-05-04T02:31:22.576Z,2.20
2018-05-04T02:33:51.665Z,1.93
2018-05-04T02:36:19.989Z,2.27
2018-05-04T02:38:48.318Z,2.43
2018-05-04T02:41:16.646Z,2.70
2018-05-04T02:43:45.737Z,2.60
2018-05-04T02:46:14.062Z,3.30
2018-05-04T02:48:42.344Z,2.33
2018-05-04T02:51:11.390Z,2.00
2018-05-04T02:53:39.713Z,1.80
2018-05-04T02:56:07.993Z,2.27
2018-05-04T02:58:36.321Z,2.73
2018-05-04T03:01:05.365Z,2.20
2018-05-04T03:03:33.701Z,2.37
2018-05-04T03:06:02.748Z,2.70
2018-05-04T03:08:31.029Z,2.10
2018-05-04T03:10:59.353Z,2.70
2018-05-04T03:13:27.636Z,2.30
2018-05-04T03:15:55.956Z,2.03
2018-05-04T03:18:25.114Z,2.50
2018-05-04T03:20:53.472Z,2.90
2018-05-04T03:23:22.564Z,3.23
2018-05-04T03:25:51.649Z,2.20
2018-05-04T03:28:20.812Z,2.60
2018-05-04T03:30:49.465Z,2.93
2018-05-04T03:33:17.745Z,3.07
2018-05-04T03:35:46.036Z,2.03
2018-05-04T03:38:14.365Z,2.67
2018-05-04T03:40:43.416Z,3.70
2018-05-04T03:43:11.689Z,3.10
2018-05-04T03:45:40.033Z,3.43
2018-05-04T03:48:08.311Z,1.97
2018-05-04T03:50:36.896Z,3.87
2018-05-04T03:53:05.174Z,2.57
2018-05-04T03:55:33.452Z,2.70
2018-05-04T03:58:13.745Z,2.80
2018-05-04T04:00:54.132Z,2.90
2018-05-04T04:03:34.378Z,2.30
2018-05-04T04:06:02.653Z,2.50
2018-05-04T04:08:30.981Z,4.30
2018-05-04T04:10:59.361Z,2.60
2018-05-04T04:13:27.692Z,2.67
2018-05-04T04:15:57.065Z,2.90
2018-05-04T04:18:25.341Z,2.60
2018-05-04T04:20:53.617Z,2.03
2018-05-04T04:23:21.942Z,3.07
2018-05-04T04:25:50.733Z,2.70
2018-05-04T04:28:19.034Z,2.47
2018-05-04T04:30:48.817Z,1.93
2018-05-04T04:33:17.145Z,2.33
2018-05-04T04:35:45.425Z,2.37
2018-05-04T04:38:13.703Z,2.53
2018-05-04T04:40:42.026Z,2.77
2018-05-04T04:43:10.309Z,2.97
2018-05-04T04:45:38.682Z,2.80
2018-05-04T04:48:06.981Z,3.00
2018-05-04T04:50:35.305Z,2.50
2018-05-04T04:53:04.403Z,4.20
2018-05-04T04:55:33.445Z,2.80
2018-05-04T04:58:01.771Z,2.63
2018-05-04T05:00:30.106Z,3.03
2018-05-04T05:02:58.401Z,2.17
2018-05-04T05:05:26.727Z,2.63
2018-05-04T05:07:55.000Z,2.50
2018-05-04T05:10:23.333Z,2.20
2018-05-04T05:12:51.657Z,1.80
2018-05-04T05:15:19.943Z,1.80
2018-05-04T05:17:48.282Z,1.37
2018-05-04T05:20:16.564Z,2.20
2018-05-04T05:22:44.861Z,2.20
2018-05-04T05:25:13.189Z,1.93
2018-05-04T05:27:42.241Z,1.27
2018-05-04T05:30:10.576Z,2.00
2018-05-04T05:32:39.669Z,1.87
2018-05-04T05:35:07.960Z,2.30
2018-05-04T05:37:36.301Z,1.97
2018-05-04T05:40:04.585Z,1.90
2018-05-04T05:42:32.952Z,1.63
2018-05-04T05:45:02.136Z,2.87
2018-05-04T05:47:30.420Z,1.87
2018-05-04T05:49:58.749Z,1.70
2018-05-04T05:52:27.805Z,2.00
2018-05-04T05:54:56.150Z,1.73
2018-05-04T05:57:24.441Z,1.73
2018-05-04T05:59:52.728Z,1.50
2018-05-04T06:02:21.070Z,1.80
2018-05-04T06:04:49.353Z,1.37
2018-05-04T06:07:17.865Z,1.83
2018-05-04T06:09:46.160Z,1.80
2018-05-04T06:12:14.441Z,1.60
2018-05-04T06:14:43.043Z,1.77
2018-05-04T06:17:12.833Z,2.27
2018-05-04T06:19:41.120Z,2.13
2018-05-04T06:22:09.752Z,1.60
2018-05-04T06:24:38.036Z,2.20
2018-05-04T06:27:06.322Z,1.83
2018-05-04T06:29:34.648Z,1.60
2018-05-04T06:32:03.729Z,2.17
2018-05-04T06:34:32.016Z,2.10
2018-05-04T06:37:00.354Z,2.03
2018-05-04T06:39:28.646Z,1.60
2018-05-04T06:41:56.977Z,2.20
2018-05-04T06:44:25.380Z,2.10
2018-05-04T06:46:53.618Z,1.83
2018-05-04T06:49:21.955Z,1.60
2018-05-04T06:51:50.249Z,1.77
2018-05-04T06:54:18.648Z,2.30
2018-05-04T06:56:46.984Z,1.90
2018-05-04T06:59:15.302Z,2.27
2018-05-04T07:01:43.573Z,2.00
2018-05-04T07:04:11.918Z,1.40
2018-05-04T07:06:40.201Z,2.63
2018-05-04T07:09:08.561Z,1.60
2018-05-04T07:11:36.878Z,2.13
2018-05-04T07:14:05.217Z,1.97
2018-05-04T07:16:33.505Z,2.40
2018-05-04T07:19:01.855Z,2.20
2018-05-04T07:21:30.140Z,3.63
2018-05-04T07:23:59.992Z,2.17
2018-05-04T07:26:29.049Z,1.50
2018-05-04T07:28:57.341Z,1.87
2018-05-04T07:31:25.697Z,1.20
2018-05-04T07:33:53.985Z,1.57
2018-05-04T07:36:22.425Z,1.60
2018-05-04T07:38:50.765Z,1.70
2018-05-04T07:41:19.052Z,2.33
2018-05-04T07:43:47.392Z,1.13
2018-05-04T07:46:15.677Z,1.43
2018-05-04T07:48:44.154Z,1.30
2018-05-04T07:51:12.381Z,1.30
2018-05-04T07:53:42.304Z,1.20
2018-05-04T07:56:10.588Z,1.53
2018-05-04T07:58:38.876Z,1.10
2018-05-04T08:01:07.212Z,0.90
2018-05-04T08:03:36.335Z,1.10
2018-05-04T08:06:04.617Z,1.30
2018-05-04T08:08:33.728Z,2.17
2018-05-04T08:11:02.071Z,1.33
2018-05-04T08:13:30.361Z,1.90
2018-05-04T08:15:58.697Z,1.47
2018-05-04T08:18:26.981Z,1.53
2018-05-04T08:20:56.029Z,1.43
2018-05-04T08:23:24.361Z,1.70
2018-05-04T08:25:52.700Z,1.20
2018-05-04T08:28:20.981Z,1.10
2018-05-04T08:30:49.264Z,1.43
2018-05-04T08:33:17.612Z,1.17
2018-05-04T08:35:45.889Z,1.00
2018-05-04T08:38:14.235Z,1.07
2018-05-04T08:40:42.850Z,1.27
2018-05-04T08:43:10.860Z,0.97
2018-05-04T08:45:39.158Z,1.00
2018-05-04T08:48:07.437Z,1.00
2018-05-04T08:50:35.772Z,1.27
2018-05-04T08:53:04.818Z,1.07
2018-05-04T08:55:33.156Z,1.10
2018-05-04T08:58:02.208Z,0.90
2018-05-04T09:00:30.528Z,1.00
2018-05-04T09:02:58.865Z,1.40
2018-05-04T09:05:28.011Z,1.90
2018-05-04T09:07:56.257Z,1.27
2018-05-04T09:10:25.310Z,0.90
2018-05-04T09:12:53.713Z,1.80
2018-05-04T09:15:21.999Z,0.80
2018-05-04T09:17:50.282Z,1.20
2018-05-04T09:20:18.624Z,1.37
2018-05-04T09:22:47.677Z,2.10
2018-05-04T09:25:16.132Z,1.20
2018-05-04T09:27:45.920Z,1.00
2018-05-04T09:30:14.302Z,1.40
2018-05-04T09:32:42.642Z,2.47
2018-05-04T09:35:10.925Z,1.50
2018-05-04T09:37:39.973Z,1.03
2018-05-04T09:40:08.309Z,1.30
2018-05-04T09:42:37.361Z,0.90
2018-05-04T09:45:05.709Z,1.93
2018-05-04T09:47:34.756Z,1.23
2018-05-04T09:50:03.090Z,1.10
2018-05-04T09:52:31.437Z,1.63
2018-05-04T09:54:59.860Z,1.20
2018-05-04T09:57:28.149Z,1.10
2018-05-04T09:59:56.493Z,1.07
2018-05-04T10:02:24.833Z,0.80
2018-05-04T10:04:53.122Z,1.10
2018-05-04T10:07:21.399Z,0.70
2018-05-04T10:09:49.800Z,0.90
2018-05-04T10:12:18.084Z,0.70
2018-05-04T10:14:46.369Z,1.20
2018-05-04T10:17:14.708Z,0.97
2018-05-04T10:19:43.808Z,2.30
2018-05-04T10:22:12.860Z,0.83
2018-05-04T10:24:41.178Z,0.70
2018-05-04T10:27:09.977Z,0.80
2018-05-04T10:29:38.261Z,0.70
2018-05-04T10:32:06.540Z,0.80
2018-05-04T10:34:34.884Z,0.93
2018-05-04T10:37:03.941Z,0.67
2018-05-04T10:39:32.216Z,0.73
2018-05-04T10:42:00.637Z,0.60
2018-05-04T10:44:29.017Z,0.90
2018-05-04T10:46:57.293Z,0.90
2018-05-04T10:49:25.633Z,0.80
2018-05-04T10:51:54.681Z,0.80
2018-05-04T10:54:23.027Z,1.17
2018-05-04T10:56:51.304Z,0.87
2018-05-04T10:59:19.652Z,0.90
2018-05-04T11:01:47.989Z,1.10
2018-05-04T11:04:16.277Z,0.70
2018-05-04T11:06:44.612Z,0.50
2018-05-04T11:09:12.897Z,1.00
2018-05-04T11:11:41.192Z,0.60
2018-05-04T11:14:09.616Z,0.70
2018-05-04T11:16:37.955Z,0.80
2018-05-04T11:19:07.001Z,0.70
2018-05-04T11:21:35.332Z,0.67
2018-05-04T11:24:04.510Z,0.80
2018-05-04T11:26:32.909Z,0.80
2018-05-04T11:29:01.205Z,0.70
2018-05-04T11:31:30.994Z,0.60
2018-05-04T11:33:59.336Z,0.67
2018-05-04T11:36:28.421Z,0.70
2018-05-04T11:38:56.784Z,0.70
2018-05-04T11:41:25.829Z,0.70
2018-05-04T11:43:55.616Z,0.60
2018-05-04T11:46:23.953Z,0.70
2018-05-04T11:48:52.325Z,0.70
2018-05-04T11:51:20.610Z,0.67
2018-05-04T11:53:48.965Z,0.80
2018-05-04T11:56:17.236Z,0.80
2018-05-04T11:58:45.581Z,0.83
2018-05-04T12:01:13.921Z,0.80
2018-05-04T12:03:42.459Z,1.03
2018-05-04T12:06:10.762Z,0.80
2018-05-04T12:08:39.100Z,0.80
2018-05-04T12:11:07.383Z,1.13
2018-05-04T12:13:36.441Z,0.80
2018-05-04T12:16:04.724Z,0.83
2018-05-04T12:18:33.005Z,0.80
2018-05-04T12:21:01.337Z,1.80
2018-05-04T12:23:30.384Z,1.30
2018-05-04T12:25:58.804Z,0.80
2018-05-04T12:28:27.089Z,0.60
2018-05-04T12:30:55.668Z,0.60
2018-05-04T12:33:23.953Z,0.70
2018-05-04T12:35:52.238Z,0.60
2018-05-04T12:38:20.660Z,1.00
2018-05-04T12:40:48.995Z,0.77
2018-05-04T12:43:18.041Z,0.73
2018-05-04T12:45:46.372Z,0.70
2018-05-04T12:48:14.656Z,0.80
2018-05-04T12:50:43.005Z,0.60
2018-05-04T12:53:11.289Z,1.03
2018-05-04T12:55:39.656Z,0.63
2018-05-04T12:58:07.937Z,0.60
2018-05-04T13:00:36.988Z,0.60
2018-05-04T13:03:05.326Z,0.60
2018-05-04T13:05:34.428Z,0.60
2018-05-04T13:08:03.533Z,0.60
2018-05-04T13:10:32.584Z,0.63
2018-05-04T13:13:01.009Z,1.03
2018-05-04T13:15:29.517Z,0.70
2018-05-04T13:17:57.796Z,0.80
2018-05-04T13:20:26.144Z,0.70
2018-05-04T13:22:54.567Z,1.33
2018-05-04T13:25:22.965Z,1.47
2018-05-04T13:27:51.248Z,1.23
2018-05-04T13:30:19.529Z,0.80
2018-05-04T13:32:47.868Z,0.90
2018-05-04T13:35:16.917Z,0.60
2018-05-04T13:37:45.229Z,0.80
2018-05-04T13:40:13.561Z,1.00
2018-05-04T13:42:42.609Z,0.80
2018-05-04T13:45:11.130Z,0.67
2018-05-04T13:47:39.408Z,0.70
2018-05-04T13:50:07.702Z,0.53
2018-05-04T13:52:36.041Z,0.80
2018-05-04T13:55:04.320Z,0.70
2018-05-04T13:57:33.368Z,1.23
2018-05-04T14:00:01.777Z,0.73
2018-05-04T14:02:30.112Z,0.80
2018-05-04T14:04:58.468Z,1.00
2018-05-04T14:07:26.801Z,0.60
2018-05-04T14:09:56.472Z,0.80
2018-05-04T14:12:24.751Z,0.60
2018-05-04T14:14:53.045Z,0.57
2018-05-04T14:17:21.377Z,1.07
2018-05-04T14:19:50.424Z,0.60
2018-05-04T14:22:18.753Z,0.60
2018-05-04T14:24:47.117Z,0.70
2018-05-04T14:27:15.401Z,0.80
2018-05-04T14:29:43.737Z,1.20
2018-05-04T14:32:12.833Z,0.70
2018-05-04T14:34:41.114Z,0.70
2018-05-04T14:37:09.445Z,0.60
2018-05-04T14:39:37.773Z,0.60
2018-05-04T14:42:06.108Z,0.67
2018-05-04T14:44:35.157Z,0.80
2018-05-04T14:47:03.486Z,0.50
2018-05-04T14:49:31.772Z,0.77
2018-05-04T14:52:00.145Z,0.70
2018-05-04T14:54:28.429Z,1.20
2018-05-04T14:56:56.753Z,0.50
2018-05-04T14:59:25.860Z,0.70
2018-05-04T15:01:54.193Z,0.67
2018-05-04T15:04:22.524Z,0.60
2018-05-04T15:06:52.325Z,0.73
2018-05-04T15:09:20.633Z,0.70
2018-05-04T15:11:48.989Z,0.70
2018-05-04T15:14:17.285Z,0.70
2018-05-04T15:16:45.621Z,0.60
2018-05-04T15:19:14.716Z,0.63
2018-05-04T15:21:43.049Z,0.60
2018-05-04T15:24:11.394Z,0.60
2018-05-04T15:26:39.716Z,0.60
2018-05-04T15:29:08.765Z,0.60
2018-05-04T15:31:37.300Z,1.00
2018-05-04T15:34:05.589Z,0.70
2018-05-04T15:36:34.010Z,0.60
2018-05-04T15:39:02.289Z,1.40
2018-05-04T15:41:30.685Z,0.67
2018-05-04T15:43:59.854Z,0.70
2018-05-04T15:46:28.181Z,0.70
2018-05-04T15:49:02.301Z,0.70
2018-05-04T15:51:36.933Z,0.70
2018-05-04T15:54:06.113Z,0.60
2018-05-04T15:56:34.397Z,0.70
2018-05-04T15:59:02.725Z,0.70
2018-05-04T16:01:31.786Z,0.83
2018-05-04T16:04:00.113Z,0.50
2018-05-04T16:06:28.389Z,0.60
2018-05-04T16:08:58.248Z,0.60
2018-05-04T16:11:27.297Z,0.80
2018-05-04T16:13:55.573Z,0.70
2018-05-04T16:16:23.901Z,0.50
2018-05-04T16:18:52.228Z,0.57
2018-05-04T16:21:20.568Z,0.40
2018-05-04T16:23:48.848Z,0.70
2018-05-04T16:26:17.180Z,0.60
2018-05-04T16:28:46.268Z,0.63
2018-05-04T16:31:14.601Z,1.00
2018-05-04T16:33:42.881Z,0.70
2018-05-04T16:36:11.213Z,1.00
2018-05-04T16:38:39.572Z,0.70
2018-05-04T16:41:07.845Z,0.60
2018-05-04T16:43:36.958Z,0.50
2018-05-04T16:46:06.005Z,0.60
2018-05-04T16:48:39.968Z,0.60
2018-05-04T16:51:09.021Z,0.60
2018-05-04T16:53:37.300Z,0.93
2018-05-04T16:56:05.629Z,0.60
2018-05-04T16:58:33.961Z,0.60
2018-05-04T17:01:02.264Z,0.60
2018-05-04T17:03:30.597Z,0.60
2018-05-04T17:06:00.395Z,0.60
2018-05-04T17:08:28.676Z,0.80
2018-05-04T17:10:57.004Z,1.50
2018-05-04T17:13:26.052Z,1.43
2018-05-04T17:15:54.457Z,0.80
2018-05-04T17:18:24.197Z,0.80
2018-05-04T17:20:52.525Z,0.90
2018-05-04T17:23:20.857Z,1.30
2018-05-04T17:25:49.169Z,0.70
2018-05-04T17:28:17.545Z,0.80
2018-05-04T17:30:45.842Z,1.10
2018-05-04T17:33:14.168Z,0.80
2018-05-04T17:35:42.508Z,1.20
2018-05-04T17:38:10.850Z,1.00
2018-05-04T17:40:39.136Z,0.70
2018-05-04T17:43:07.456Z,1.17
2018-05-04T17:45:36.504Z,1.30
2018-05-04T17:48:04.916Z,0.70
2018-05-04T17:50:33.253Z,0.83
2018-05-04T17:53:01.601Z,0.67
2018-05-04T17:55:29.885Z,0.70
2018-05-04T17:57:58.234Z,0.70
2018-05-04T18:00:26.512Z,0.90
2018-05-04T18:02:55.062Z,0.93
2018-05-04T18:05:23.352Z,0.80
2018-05-04T18:07:51.630Z,0.73
2018-05-04T18:10:20.042Z,1.53
2018-05-04T18:12:49.081Z,1.10
2018-05-04T18:15:17.523Z,1.07
2018-05-04T18:17:45.810Z,1.00
2018-05-04T18:20:14.140Z,1.60
2018-05-04T18:22:43.237Z,1.10
2018-05-04T18:25:12.284Z,1.07
2018-05-04T18:27:40.608Z,1.10
2018-05-04T18:30:08.945Z,1.33
2018-05-04T18:32:38.084Z,1.40
2018-05-04T18:35:06.712Z,1.10
2018-05-04T18:37:34.989Z,1.10
2018-05-04T18:40:03.280Z,1.93
2018-05-04T18:42:31.609Z,1.10
2018-05-04T18:45:00.737Z,0.80
2018-05-04T18:47:29.101Z,1.20
2018-05-04T18:49:58.169Z,0.90
2018-05-04T18:52:26.570Z,1.00
2018-05-04T18:54:54.849Z,1.53
2018-05-04T18:57:23.177Z,1.20
2018-05-04T18:59:52.288Z,1.00
2018-05-04T19:02:27.480Z,1.07
2018-05-04T19:04:55.907Z,2.30
2018-05-04T19:07:24.201Z,1.13
2018-05-04T19:09:53.417Z,1.30
2018-05-04T19:12:23.273Z,0.90
2018-05-04T19:14:52.329Z,1.00
2018-05-04T19:17:20.605Z,1.03
2018-05-04T19:19:49.077Z,0.80
2018-05-04T19:22:17.484Z,1.00
2018-05-04T19:24:45.825Z,1.03
2018-05-04T19:27:14.405Z,1.00
2018-05-04T19:29:42.688Z,0.90
2018-05-04T19:32:10.973Z,0.80
2018-05-04T19:34:39.408Z,1.00
2018-05-04T19:37:07.613Z,1.10
2018-05-04T19:39:35.956Z,1.20
2018-05-04T19:42:04.350Z,1.30
2018-05-04T19:44:32.689Z,1.80
2018-05-04T19:47:01.121Z,0.80
2018-05-04T19:49:29.400Z,1.40
2018-05-04T19:51:57.753Z,1.00
2018-05-04T19:54:26.036Z,1.23
2018-05-04T19:56:54.320Z,0.80
2018-05-04T19:59:22.656Z,1.33
2018-05-04T20:01:50.945Z,0.90
2018-05-04T20:04:19.273Z,1.27
2018-05-04T20:06:48.377Z,1.57
2018-05-04T20:09:17.472Z,2.60
2018-05-04T20:11:45.760Z,2.50
2018-05-04T20:14:14.107Z,1.53
2018-05-04T20:16:42.393Z,2.10
2018-05-04T20:19:10.721Z,1.30
2018-05-04T20:21:40.750Z,1.90
2018-05-04T20:24:09.062Z,1.20
2018-05-04T20:26:37.429Z,1.00
2018-05-04T20:29:05.782Z,1.40
2018-05-04T20:31:34.176Z,1.93
2018-05-04T20:34:02.493Z,1.50
2018-05-04T20:36:31.097Z,1.90
2018-05-04T20:38:59.381Z,1.90
2018-05-04T20:41:27.665Z,1.50
2018-05-04T20:43:55.997Z,1.67
2018-05-04T20:46:25.050Z,2.27
2018-05-04T20:48:53.380Z,1.87
2018-05-04T20:51:21.721Z,2.73
2018-05-04T20:53:50.049Z,1.73
2018-05-04T20:56:19.893Z,2.03
2018-05-04T20:58:49.035Z,1.63
2018-05-04T21:01:17.381Z,2.57
2018-05-04T21:03:46.495Z,1.60
2018-05-04T21:06:14.775Z,2.10
2018-05-04T21:08:44.061Z,2.17
2018-05-04T21:11:12.346Z,2.17
2018-05-04T21:13:40.628Z,2.53
2018-05-04T21:16:08.965Z,2.10
2018-05-04T21:18:38.065Z,2.20
2018-05-04T21:21:06.449Z,2.10
2018-05-04T21:23:34.780Z,2.00
2018-05-04T21:26:03.114Z,2.03
2018-05-04T21:28:31.444Z,2.20
2018-05-04T21:31:00.493Z,1.70
2018-05-04T21:33:28.840Z,1.97
2018-05-04T21:35:57.912Z,1.93
2018-05-04T21:38:26.225Z,2.03
2018-05-04T21:40:54.504Z,1.70
2018-05-04T21:43:22.829Z,1.57
2018-05-04T21:45:51.877Z,1.93
2018-05-04T21:48:20.201Z,1.73
2018-05-04T21:50:48.480Z,1.40
2018-05-04T21:53:16.809Z,2.07
2018-05-04T21:55:45.112Z,2.10
2018-05-04T21:58:13.748Z,1.70
2018-05-04T22:00:42.029Z,1.40
2018-05-04T22:03:10.311Z,1.57
2018-05-04T22:05:38.633Z,1.67
2018-05-04T22:08:06.958Z,1.60
2018-05-04T22:10:35.288Z,1.60
2018-05-04T22:13:03.568Z,1.27
2018-05-04T22:15:31.928Z,1.50
2018-05-04T22:18:00.189Z,1.77
2018-05-04T22:20:28.500Z,1.10
2018-05-04T22:22:56.844Z,2.03
2018-05-04T22:25:25.132Z,1.53
2018-05-04T22:27:53.404Z,1.40
2018-05-04T22:30:21.733Z,1.43
2018-05-04T22:32:50.009Z,1.47
2018-05-04T22:35:18.339Z,1.53
2018-05-04T22:37:46.624Z,1.40
2018-05-04T22:40:14.969Z,1.50
2018-05-04T22:42:43.249Z,1.33
2018-05-04T22:45:11.573Z,1.60
2018-05-04T22:47:40.616Z,1.23
2018-05-04T22:50:08.944Z,1.40
2018-05-04T22:52:37.272Z,1.47
2018-05-04T22:55:06.317Z,1.10
2018-05-04T22:57:34.641Z,1.80
2018-05-04T23:00:02.928Z,3.47
2018-05-04T23:02:31.308Z,1.70
2018-05-04T23:04:59.596Z,1.73
2018-05-04T23:07:27.938Z,1.60
2018-05-04T23:09:56.269Z,1.77
2018-05-04T23:12:24.600Z,2.80
2018-05-04T23:14:53.644Z,1.70
2018-05-04T23:17:21.913Z,2.20
2018-05-04T23:19:50.242Z,2.30
2018-05-04T23:22:31.505Z,1.53
2018-05-04T23:24:59.829Z,2.23
2018-05-04T23:27:28.104Z,2.10
2018-05-04T23:29:56.389Z,2.20
2018-05-04T23:32:24.808Z,2.50
2018-05-04T23:34:53.157Z,2.33
2018-05-04T23:37:21.480Z,2.20
2018-05-04T23:39:49.821Z,1.90
2018-05-04T23:42:18.260Z,1.20
2018-05-04T23:44:46.536Z,1.70
2018-05-04T23:47:14.870Z,3.07
2018-05-04T23:49:43.185Z,1.60
2018-05-04T23:52:11.468Z,1.77
2018-05-04T23:54:40.576Z,1.60
2018-05-04T23:57:09.621Z,2.30
2018-05-04T23:59:37.934Z,2.30
